WAT251 KBOS-KMSP
Flight info
| Callsign | WAT251 |
|---|---|
| Flight time | 2h 54m |
| Altitude | 36000 |
| Route | HYLND7 HYLND DCT HANAA Q816 KELTI Q812 ZOHAN DCT IDIOM MUSCL4 |
| Aircraft | B739/M-SDE2E3FGHIRWXY/LB1 |
Departure
| Time | 2026-05-05 19:15 |
|---|---|
| Airport | Boston Logan International Airport (KBOS) |
Arrival
| Time | 2026-05-05 22:09 |
|---|---|
| Airport | Minneapolis–Saint Paul International Airport / Wold–Chamberlain Field (KMSP) |
| Time | Latitude | Longitude | Altitude | Speed | Heading |
|---|---|---|---|---|---|
| 2026-05-05 18:32 | 42.36088 | -71.01673 | 21 ft | 0 kts | 289° |
| 2026-05-05 19:02 | 42.36087 | -71.01673 | 21 ft | 0 kts | 289° |
| 2026-05-05 19:02 | 42.36088 | -71.01673 | 21 ft | 0 kts | 289° |
| 2026-05-05 19:02 | 42.36087 | -71.01672 | 21 ft | 1 kts | 289° |
| 2026-05-05 19:03 | 42.36083 | -71.01654 | 21 ft | 2 kts | 289° |
| 2026-05-05 19:03 | 42.36078 | -71.01635 | 21 ft | 2 kts | 289° |
| 2026-05-05 19:03 | 42.36073 | -71.01616 | 21 ft | 2 kts | 289° |
| 2026-05-05 19:03 | 42.36068 | -71.01597 | 21 ft | 2 kts | 289° |
| 2026-05-05 19:04 | 42.36063 | -71.01578 | 21 ft | 1 kts | 308° |
| 2026-05-05 19:04 | 42.36050 | -71.01569 | 21 ft | 2 kts | 2° |
| 2026-05-05 19:04 | 42.36044 | -71.01571 | 21 ft | 1 kts | 27° |
| 2026-05-05 19:04 | 42.36039 | -71.01574 | 21 ft | 0 kts | 20° |
| 2026-05-05 19:07 | 42.36039 | -71.01573 | 21 ft | 0 kts | 20° |
| 2026-05-05 19:07 | 42.36071 | -71.01557 | 21 ft | 7 kts | 20° |
| 2026-05-05 19:07 | 42.36121 | -71.01533 | 21 ft | 8 kts | 18° |
| 2026-05-05 19:07 | 42.36185 | -71.01504 | 21 ft | 11 kts | 20° |
| 2026-05-05 19:08 | 42.36259 | -71.01467 | 21 ft | 12 kts | 20° |
| 2026-05-05 19:08 | 42.36343 | -71.01424 | 21 ft | 12 kts | 20° |
| 2026-05-05 19:08 | 42.36422 | -71.01389 | 21 ft | 11 kts | 18° |
| 2026-05-05 19:08 | 42.36507 | -71.01341 | 21 ft | 13 kts | 25° |
| 2026-05-05 19:09 | 42.36594 | -71.01289 | 19 ft | 14 kts | 20° |
| 2026-05-05 19:09 | 42.36702 | -71.01247 | 18 ft | 16 kts | 10° |
| 2026-05-05 19:09 | 42.36808 | -71.01280 | 18 ft | 14 kts | 358° |
| 2026-05-05 19:09 | 42.36892 | -71.01218 | 18 ft | 13 kts | 41° |
| 2026-05-05 19:10 | 42.36962 | -71.01135 | 18 ft | 13 kts | 38° |
| 2026-05-05 19:10 | 42.37036 | -71.01077 | 17 ft | 13 kts | 28° |
| 2026-05-05 19:10 | 42.37141 | -71.01004 | 15 ft | 17 kts | 26° |
| 2026-05-05 19:10 | 42.37255 | -71.00932 | 15 ft | 17 kts | 25° |
| 2026-05-05 19:11 | 42.37367 | -71.00872 | 15 ft | 16 kts | 20° |
| 2026-05-05 19:11 | 42.37471 | -71.00820 | 15 ft | 15 kts | 20° |
| 2026-05-05 19:11 | 42.37562 | -71.00776 | 15 ft | 12 kts | 19° |
| 2026-05-05 19:11 | 42.37643 | -71.00736 | 15 ft | 12 kts | 19° |
| 2026-05-05 19:12 | 42.37722 | -71.00699 | 15 ft | 11 kts | 19° |
| 2026-05-05 19:12 | 42.37796 | -71.00664 | 15 ft | 11 kts | 19° |
| 2026-05-05 19:12 | 42.37833 | -71.00623 | 15 ft | 2 kts | 70° |
| 2026-05-05 19:12 | 42.37837 | -71.00605 | 15 ft | 1 kts | 82° |
| 2026-05-05 19:13 | 42.37837 | -71.00602 | 15 ft | 0 kts | 85° |
| 2026-05-05 19:13 | 42.37837 | -71.00589 | 15 ft | 4 kts | 95° |
| 2026-05-05 19:13 | 42.37825 | -71.00522 | 15 ft | 8 kts | 108° |
| 2026-05-05 19:14 | 42.37792 | -71.00476 | 15 ft | 6 kts | 179° |
| 2026-05-05 19:14 | 42.37669 | -71.00528 | 15 ft | 47 kts | 199° |
| 2026-05-05 19:14 | 42.37131 | -71.00787 | 16 ft | 115 kts | 200° |
| 2026-05-05 19:14 | 42.36180 | -71.01252 | 110 ft | 164 kts | 199° |
| 2026-05-05 19:15 | 42.35133 | -71.01735 | 920 ft | 162 kts | 192° |
| 2026-05-05 19:15 | 42.33957 | -71.01569 | 1431 ft | 190 kts | 158° |
| 2026-05-05 19:15 | 42.32959 | -71.00248 | 2035 ft | 212 kts | 133° |
| 2026-05-05 19:15 | 42.32110 | -70.98571 | 2631 ft | 222 kts | 132° |
| 2026-05-05 19:16 | 42.31364 | -70.96709 | 3257 ft | 236 kts | 118° |
| 2026-05-05 19:16 | 42.31157 | -70.94419 | 3772 ft | 263 kts | 90° |
| 2026-05-05 19:16 | 42.31526 | -70.91917 | 4269 ft | 282 kts | 79° |
| 2026-05-05 19:16 | 42.32031 | -70.89291 | 4753 ft | 298 kts | 79° |
| 2026-05-05 19:17 | 42.32518 | -70.86556 | 5354 ft | 307 kts | 81° |
| 2026-05-05 19:17 | 42.32977 | -70.83706 | 6084 ft | 312 kts | 81° |
| 2026-05-05 19:17 | 42.33414 | -70.80839 | 6857 ft | 315 kts | 80° |
| 2026-05-05 19:17 | 42.34036 | -70.78008 | 7600 ft | 320 kts | 67° |
| 2026-05-05 19:18 | 42.35293 | -70.75559 | 8317 ft | 320 kts | 38° |
| 2026-05-05 19:18 | 42.37156 | -70.74065 | 9107 ft | 312 kts | 13° |
| 2026-05-05 19:18 | 42.39204 | -70.73239 | 9887 ft | 309 kts | 9° |
| 2026-05-05 19:18 | 42.41283 | -70.72429 | 10476 ft | 317 kts | 10° |
| 2026-05-05 19:19 | 42.43480 | -70.71731 | 10877 ft | 327 kts | 1° |
| 2026-05-05 19:19 | 42.45744 | -70.71790 | 11236 ft | 329 kts | 341° |
| 2026-05-05 19:19 | 42.47895 | -70.72869 | 11598 ft | 335 kts | 328° |
| 2026-05-05 19:19 | 42.50029 | -70.74305 | 11945 ft | 349 kts | 327° |
| 2026-05-05 19:20 | 42.52177 | -70.75928 | 12260 ft | 360 kts | 320° |
| 2026-05-05 19:20 | 42.54097 | -70.78145 | 12634 ft | 364 kts | 307° |
| 2026-05-05 19:20 | 42.55621 | -70.80823 | 13239 ft | 365 kts | 301° |
| 2026-05-05 19:20 | 42.57030 | -70.83705 | 13874 ft | 368 kts | 298° |
| 2026-05-05 19:21 | 42.58399 | -70.86638 | 14502 ft | 372 kts | 298° |
| 2026-05-05 19:21 | 42.59803 | -70.89648 | 15065 ft | 379 kts | 298° |
| 2026-05-05 19:21 | 42.61229 | -70.92663 | 15656 ft | 383 kts | 299° |
| 2026-05-05 19:21 | 42.62680 | -70.95689 | 16237 ft | 388 kts | 299° |
| 2026-05-05 19:22 | 42.64158 | -70.98742 | 16795 ft | 392 kts | 299° |
| 2026-05-05 19:22 | 42.65658 | -71.01833 | 17346 ft | 397 kts | 300° |
| 2026-05-05 19:22 | 42.67183 | -71.04971 | 17863 ft | 401 kts | 299° |
| 2026-05-05 19:22 | 42.68722 | -71.08141 | 18405 ft | 406 kts | 300° |
| 2026-05-05 19:23 | 42.70280 | -71.11352 | 18995 ft | 408 kts | 300° |
| 2026-05-05 19:23 | 42.71835 | -71.14562 | 19588 ft | 411 kts | 299° |
| 2026-05-05 19:23 | 42.73424 | -71.17847 | 20104 ft | 415 kts | 299° |
| 2026-05-05 19:23 | 42.75000 | -71.21122 | 20605 ft | 418 kts | 299° |
| 2026-05-05 19:24 | 42.76499 | -71.24480 | 21118 ft | 420 kts | 296° |
| 2026-05-05 19:24 | 42.77812 | -71.28029 | 21567 ft | 421 kts | 290° |
| 2026-05-05 19:24 | 42.78844 | -71.31739 | 22041 ft | 422 kts | 285° |
| 2026-05-05 19:24 | 42.79686 | -71.35580 | 22519 ft | 425 kts | 282° |
| 2026-05-05 19:25 | 42.80434 | -71.39467 | 23002 ft | 427 kts | 281° |
| 2026-05-05 19:25 | 42.81163 | -71.43405 | 23479 ft | 430 kts | 281° |
| 2026-05-05 19:25 | 42.81884 | -71.47341 | 23932 ft | 433 kts | 281° |
| 2026-05-05 19:25 | 42.82613 | -71.51317 | 24428 ft | 435 kts | 282° |
| 2026-05-05 19:26 | 42.83348 | -71.55321 | 24897 ft | 438 kts | 282° |
| 2026-05-05 19:26 | 42.84085 | -71.59320 | 25326 ft | 440 kts | 282° |
| 2026-05-05 19:26 | 42.84831 | -71.63352 | 25755 ft | 442 kts | 282° |
| 2026-05-05 19:26 | 42.85584 | -71.67419 | 26193 ft | 444 kts | 281° |
| 2026-05-05 19:27 | 42.86342 | -71.71516 | 26576 ft | 448 kts | 281° |
| 2026-05-05 19:27 | 42.87108 | -71.75655 | 27036 ft | 449 kts | 281° |
| 2026-05-05 19:27 | 42.87860 | -71.79721 | 27550 ft | 448 kts | 281° |
| 2026-05-05 19:27 | 42.88615 | -71.83802 | 28181 ft | 445 kts | 282° |
| 2026-05-05 19:28 | 42.89370 | -71.87894 | 28815 ft | 441 kts | 281° |
| 2026-05-05 19:28 | 42.90110 | -71.91913 | 29493 ft | 436 kts | 282° |
| 2026-05-05 19:28 | 42.90839 | -71.95883 | 30177 ft | 431 kts | 282° |
| 2026-05-05 19:28 | 42.91553 | -71.99786 | 30781 ft | 427 kts | 281° |
| 2026-05-05 19:29 | 42.92266 | -72.03689 | 31257 ft | 425 kts | 282° |
| 2026-05-05 19:29 | 42.92981 | -72.07626 | 31440 ft | 430 kts | 282° |
| 2026-05-05 19:29 | 42.93714 | -72.11672 | 31624 ft | 434 kts | 282° |
| 2026-05-05 19:29 | 42.94453 | -72.15747 | 32082 ft | 432 kts | 282° |
| 2026-05-05 19:30 | 42.95174 | -72.19724 | 32646 ft | 428 kts | 282° |
| 2026-05-05 19:30 | 42.95886 | -72.23661 | 33264 ft | 422 kts | 282° |
| 2026-05-05 19:30 | 42.96578 | -72.27486 | 33906 ft | 415 kts | 283° |
| 2026-05-05 19:30 | 42.97264 | -72.31280 | 34476 ft | 410 kts | 283° |
| 2026-05-05 19:31 | 42.97939 | -72.35029 | 34755 ft | 410 kts | 283° |
| 2026-05-05 19:31 | 42.98615 | -72.38815 | 35072 ft | 408 kts | 282° |
| 2026-05-05 19:31 | 42.99284 | -72.42567 | 35380 ft | 407 kts | 282° |
| 2026-05-05 19:31 | 42.99949 | -72.46315 | 35532 ft | 410 kts | 282° |
| 2026-05-05 19:32 | 43.00617 | -72.50095 | 35697 ft | 412 kts | 282° |
| 2026-05-05 19:32 | 43.01283 | -72.53859 | 35782 ft | 413 kts | 282° |
| 2026-05-05 19:32 | 43.02629 | -72.61464 | 35795 ft | 411 kts | 282° |
| 2026-05-05 19:33 | 43.03957 | -72.68981 | 35795 ft | 407 kts | 281° |
| 2026-05-05 19:33 | 43.05277 | -72.76507 | 35808 ft | 407 kts | 282° |
| 2026-05-05 19:34 | 43.06580 | -72.83980 | 35706 ft | 403 kts | 282° |
| 2026-05-05 19:34 | 43.07230 | -72.87708 | 35818 ft | 405 kts | 282° |
| 2026-05-05 19:35 | 43.08537 | -72.95204 | 35816 ft | 406 kts | 282° |
| 2026-05-05 19:35 | 43.09831 | -73.02678 | 35811 ft | 406 kts | 282° |
| 2026-05-05 19:36 | 43.11127 | -73.10197 | 35804 ft | 405 kts | 282° |
| 2026-05-05 19:36 | 43.12413 | -73.17680 | 35977 ft | 404 kts | 282° |
| 2026-05-05 19:36 | 43.13041 | -73.21365 | 35619 ft | 401 kts | 282° |
| 2026-05-05 19:37 | 43.13674 | -73.25079 | 35780 ft | 397 kts | 281° |
| 2026-05-05 19:37 | 43.14934 | -73.32480 | 35787 ft | 403 kts | 282° |
| 2026-05-05 19:38 | 43.16185 | -73.39844 | 35779 ft | 399 kts | 282° |
| 2026-05-05 19:38 | 43.17434 | -73.47244 | 35766 ft | 398 kts | 282° |
| 2026-05-05 19:39 | 43.18675 | -73.54629 | 35754 ft | 398 kts | 282° |
| 2026-05-05 19:39 | 43.19871 | -73.62012 | 35750 ft | 399 kts | 279° |
| 2026-05-05 19:40 | 43.20562 | -73.69533 | 35751 ft | 401 kts | 274° |
| 2026-05-05 19:40 | 43.21049 | -73.77055 | 35752 ft | 397 kts | 274° |
| 2026-05-05 19:41 | 43.21545 | -73.84590 | 35759 ft | 398 kts | 274° |
| 2026-05-05 19:41 | 43.22071 | -73.92085 | 35765 ft | 398 kts | 274° |
| 2026-05-05 19:42 | 43.22612 | -73.99646 | 35769 ft | 398 kts | 274° |
| 2026-05-05 19:42 | 43.23152 | -74.07130 | 35769 ft | 397 kts | 275° |
| 2026-05-05 19:43 | 43.23686 | -74.14616 | 35771 ft | 395 kts | 274° |
| 2026-05-05 19:43 | 43.24215 | -74.22061 | 35763 ft | 394 kts | 274° |
| 2026-05-05 19:44 | 43.24733 | -74.29530 | 35766 ft | 395 kts | 274° |
| 2026-05-05 19:44 | 43.25198 | -74.36970 | 35767 ft | 393 kts | 272° |
| 2026-05-05 19:45 | 43.25404 | -74.44448 | 35772 ft | 391 kts | 271° |
| 2026-05-05 19:45 | 43.25543 | -74.51857 | 35781 ft | 392 kts | 271° |
| 2026-05-05 19:46 | 43.25706 | -74.59267 | 35782 ft | 390 kts | 271° |
| 2026-05-05 19:46 | 43.25882 | -74.66731 | 35785 ft | 391 kts | 271° |
| 2026-05-05 19:47 | 43.26059 | -74.74136 | 35787 ft | 391 kts | 271° |
| 2026-05-05 19:47 | 43.26236 | -74.81593 | 35781 ft | 389 kts | 271° |
| 2026-05-05 19:48 | 43.26407 | -74.88981 | 35782 ft | 389 kts | 270° |
| 2026-05-05 19:48 | 43.26573 | -74.96363 | 35779 ft | 390 kts | 270° |
| 2026-05-05 19:49 | 43.26733 | -75.03759 | 35777 ft | 387 kts | 271° |
| 2026-05-05 19:49 | 43.26888 | -75.11102 | 35774 ft | 386 kts | 271° |
| 2026-05-05 19:50 | 43.27036 | -75.18444 | 35769 ft | 388 kts | 271° |
| 2026-05-05 19:50 | 43.27190 | -75.25817 | 35769 ft | 385 kts | 271° |
| 2026-05-05 19:51 | 43.27325 | -75.33112 | 35768 ft | 383 kts | 271° |
| 2026-05-05 19:51 | 43.27460 | -75.40453 | 35768 ft | 387 kts | 270° |
| 2026-05-05 19:52 | 43.27594 | -75.47719 | 35766 ft | 381 kts | 271° |
| 2026-05-05 19:52 | 43.27723 | -75.55012 | 35764 ft | 384 kts | 270° |
| 2026-05-05 19:53 | 43.27841 | -75.62254 | 35763 ft | 380 kts | 270° |
| 2026-05-05 19:53 | 43.27953 | -75.69517 | 35762 ft | 380 kts | 270° |
| 2026-05-05 19:54 | 43.28066 | -75.76701 | 35767 ft | 378 kts | 270° |
| 2026-05-05 19:54 | 43.28176 | -75.83925 | 35763 ft | 379 kts | 270° |
| 2026-05-05 19:55 | 43.28276 | -75.91093 | 35762 ft | 378 kts | 270° |
| 2026-05-05 19:55 | 43.28362 | -75.98300 | 35761 ft | 378 kts | 270° |
| 2026-05-05 19:56 | 43.28452 | -76.05442 | 35771 ft | 374 kts | 270° |
| 2026-05-05 19:56 | 43.28560 | -76.12582 | 35767 ft | 376 kts | 270° |
| 2026-05-05 19:57 | 43.28647 | -76.19732 | 35770 ft | 375 kts | 270° |
| 2026-05-05 19:57 | 43.28718 | -76.26839 | 35770 ft | 372 kts | 271° |
| 2026-05-05 19:58 | 43.28797 | -76.33971 | 35766 ft | 375 kts | 270° |
| 2026-05-05 19:58 | 43.28863 | -76.41042 | 35770 ft | 371 kts | 270° |
| 2026-05-05 19:59 | 43.28921 | -76.48102 | 35767 ft | 370 kts | 269° |
| 2026-05-05 19:59 | 43.28973 | -76.55184 | 35764 ft | 371 kts | 271° |
| 2026-05-05 20:00 | 43.29026 | -76.62199 | 35771 ft | 371 kts | 270° |
| 2026-05-05 20:00 | 43.29097 | -76.69250 | 35759 ft | 369 kts | 269° |
| 2026-05-05 20:01 | 43.29216 | -76.76273 | 35766 ft | 369 kts | 270° |
| 2026-05-05 20:01 | 43.29338 | -76.83275 | 35760 ft | 369 kts | 270° |
| 2026-05-05 20:02 | 43.29438 | -76.90260 | 35768 ft | 365 kts | 270° |
| 2026-05-05 20:02 | 43.29534 | -76.97233 | 35775 ft | 367 kts | 270° |
| 2026-05-05 20:03 | 43.29613 | -77.04196 | 35780 ft | 365 kts | 270° |
| 2026-05-05 20:03 | 43.29699 | -77.11176 | 35776 ft | 366 kts | 270° |
| 2026-05-05 20:04 | 43.29797 | -77.18103 | 35774 ft | 364 kts | 269° |
| 2026-05-05 20:04 | 43.29880 | -77.25082 | 35777 ft | 367 kts | 270° |
| 2026-05-05 20:05 | 43.29959 | -77.32053 | 35767 ft | 367 kts | 270° |
| 2026-05-05 20:05 | 43.30033 | -77.39031 | 35771 ft | 364 kts | 270° |
| 2026-05-05 20:06 | 43.30099 | -77.45973 | 35767 ft | 366 kts | 269° |
| 2026-05-05 20:06 | 43.30158 | -77.52914 | 35766 ft | 364 kts | 269° |
| 2026-05-05 20:07 | 43.30217 | -77.59912 | 35764 ft | 367 kts | 270° |
| 2026-05-05 20:07 | 43.30272 | -77.66865 | 35769 ft | 366 kts | 270° |
| 2026-05-05 20:08 | 43.30323 | -77.73801 | 35765 ft | 366 kts | 269° |
| 2026-05-05 20:08 | 43.30367 | -77.80771 | 35768 ft | 367 kts | 269° |
| 2026-05-05 20:09 | 43.30414 | -77.87723 | 35774 ft | 366 kts | 269° |
| 2026-05-05 20:09 | 43.30449 | -77.94710 | 35779 ft | 365 kts | 269° |
| 2026-05-05 20:10 | 43.30486 | -78.01617 | 35779 ft | 365 kts | 269° |
| 2026-05-05 20:10 | 43.30516 | -78.08559 | 35780 ft | 365 kts | 269° |
| 2026-05-05 20:11 | 43.30515 | -78.15511 | 35778 ft | 364 kts | 268° |
| 2026-05-05 20:11 | 43.30345 | -78.22418 | 35777 ft | 364 kts | 266° |
| 2026-05-05 20:12 | 43.30132 | -78.29324 | 35775 ft | 363 kts | 267° |
| 2026-05-05 20:12 | 43.29927 | -78.36237 | 35774 ft | 364 kts | 266° |
| 2026-05-05 20:13 | 43.29732 | -78.43151 | 35772 ft | 363 kts | 268° |
| 2026-05-05 20:13 | 43.29554 | -78.50019 | 35771 ft | 362 kts | 268° |
| 2026-05-05 20:14 | 43.29351 | -78.56908 | 35766 ft | 362 kts | 266° |
| 2026-05-05 20:14 | 43.29151 | -78.63819 | 35767 ft | 361 kts | 267° |
| 2026-05-05 20:15 | 43.28951 | -78.70656 | 35768 ft | 360 kts | 266° |
| 2026-05-05 20:15 | 43.28744 | -78.77511 | 35769 ft | 360 kts | 266° |
| 2026-05-05 20:16 | 43.28529 | -78.84319 | 35778 ft | 360 kts | 265° |
| 2026-05-05 20:16 | 43.28315 | -78.91141 | 35781 ft | 358 kts | 265° |
| 2026-05-05 20:17 | 43.28197 | -78.98002 | 35784 ft | 361 kts | 269° |
| 2026-05-05 20:17 | 43.28316 | -79.04833 | 35783 ft | 360 kts | 269° |
| 2026-05-05 20:18 | 43.28439 | -79.11701 | 35786 ft | 361 kts | 270° |
| 2026-05-05 20:18 | 43.29440 | -79.18401 | 35786 ft | 367 kts | 285° |
| 2026-05-05 20:19 | 43.31416 | -79.24912 | 35786 ft | 373 kts | 287° |
| 2026-05-05 20:19 | 43.33310 | -79.31438 | 35778 ft | 367 kts | 284° |
| 2026-05-05 20:20 | 43.35038 | -79.38058 | 35774 ft | 369 kts | 283° |
| 2026-05-05 20:20 | 43.36662 | -79.44696 | 35778 ft | 365 kts | 283° |
| 2026-05-05 20:21 | 43.38241 | -79.51307 | 35781 ft | 366 kts | 283° |
| 2026-05-05 20:21 | 43.39818 | -79.57924 | 35785 ft | 366 kts | 282° |
| 2026-05-05 20:22 | 43.41382 | -79.64543 | 35785 ft | 364 kts | 282° |
| 2026-05-05 20:22 | 43.42939 | -79.71175 | 35792 ft | 365 kts | 282° |
| 2026-05-05 20:23 | 43.44504 | -79.77799 | 35795 ft | 364 kts | 282° |
| 2026-05-05 20:23 | 43.46061 | -79.84396 | 35793 ft | 366 kts | 282° |
| 2026-05-05 20:24 | 43.47600 | -79.91002 | 35792 ft | 363 kts | 282° |
| 2026-05-05 20:24 | 43.49132 | -79.97585 | 35791 ft | 364 kts | 282° |
| 2026-05-05 20:25 | 43.50685 | -80.04253 | 35789 ft | 366 kts | 282° |
| 2026-05-05 20:25 | 43.52224 | -80.10869 | 35791 ft | 362 kts | 282° |
| 2026-05-05 20:26 | 43.53751 | -80.17463 | 35787 ft | 364 kts | 282° |
| 2026-05-05 20:26 | 43.55282 | -80.24077 | 35795 ft | 365 kts | 281° |
| 2026-05-05 20:27 | 43.56806 | -80.30716 | 35792 ft | 362 kts | 282° |
| 2026-05-05 20:27 | 43.58324 | -80.37369 | 35794 ft | 363 kts | 282° |
| 2026-05-05 20:28 | 43.59821 | -80.43938 | 35798 ft | 364 kts | 281° |
| 2026-05-05 20:28 | 43.61346 | -80.50628 | 35791 ft | 364 kts | 282° |
| 2026-05-05 20:29 | 43.62831 | -80.57198 | 35788 ft | 360 kts | 282° |
| 2026-05-05 20:29 | 43.64328 | -80.63798 | 35786 ft | 363 kts | 282° |
| 2026-05-05 20:30 | 43.65832 | -80.70468 | 35786 ft | 367 kts | 282° |
| 2026-05-05 20:30 | 43.67331 | -80.77100 | 35786 ft | 362 kts | 281° |
| 2026-05-05 20:31 | 43.68821 | -80.83737 | 35785 ft | 361 kts | 281° |
| 2026-05-05 20:31 | 43.70315 | -80.90389 | 35783 ft | 365 kts | 281° |
| 2026-05-05 20:32 | 43.71797 | -80.97058 | 35782 ft | 362 kts | 281° |
| 2026-05-05 20:32 | 43.73273 | -81.03693 | 35782 ft | 362 kts | 280° |
| 2026-05-05 20:33 | 43.74748 | -81.10352 | 35778 ft | 364 kts | 281° |
| 2026-05-05 20:33 | 43.76224 | -81.17015 | 35764 ft | 361 kts | 281° |
| 2026-05-05 20:34 | 43.77680 | -81.23634 | 35770 ft | 363 kts | 281° |
| 2026-05-05 20:34 | 43.79136 | -81.30303 | 35760 ft | 362 kts | 280° |
| 2026-05-05 20:35 | 43.80595 | -81.36956 | 35760 ft | 362 kts | 280° |
| 2026-05-05 20:35 | 43.82041 | -81.43570 | 35771 ft | 362 kts | 280° |
| 2026-05-05 20:36 | 43.83495 | -81.50257 | 35767 ft | 360 kts | 280° |
| 2026-05-05 20:36 | 43.84925 | -81.56845 | 35777 ft | 362 kts | 281° |
| 2026-05-05 20:37 | 43.86356 | -81.63473 | 35781 ft | 359 kts | 281° |
| 2026-05-05 20:37 | 43.87790 | -81.70137 | 35786 ft | 360 kts | 279° |
| 2026-05-05 20:38 | 43.89208 | -81.76754 | 35788 ft | 359 kts | 280° |
| 2026-05-05 20:38 | 43.90629 | -81.83385 | 35790 ft | 361 kts | 279° |
| 2026-05-05 20:39 | 43.92056 | -81.90068 | 35788 ft | 363 kts | 279° |
| 2026-05-05 20:39 | 43.93464 | -81.96696 | 35788 ft | 358 kts | 279° |
| 2026-05-05 20:40 | 43.94878 | -82.03374 | 35788 ft | 361 kts | 279° |
| 2026-05-05 20:40 | 43.96282 | -82.10021 | 35770 ft | 360 kts | 279° |
| 2026-05-05 20:41 | 43.97629 | -82.16638 | 35770 ft | 357 kts | 277° |
| 2026-05-05 20:41 | 43.98280 | -82.23392 | 35763 ft | 349 kts | 268° |
| 2026-05-05 20:42 | 43.98230 | -82.30098 | 35767 ft | 349 kts | 266° |
| 2026-05-05 20:42 | 43.98096 | -82.36768 | 35758 ft | 348 kts | 265° |
| 2026-05-05 20:43 | 43.97981 | -82.43481 | 35755 ft | 349 kts | 266° |
| 2026-05-05 20:43 | 43.97876 | -82.50159 | 35763 ft | 348 kts | 266° |
| 2026-05-05 20:44 | 43.97763 | -82.56897 | 35762 ft | 349 kts | 265° |
| 2026-05-05 20:44 | 43.97649 | -82.63593 | 35763 ft | 347 kts | 265° |
| 2026-05-05 20:45 | 43.97469 | -82.73592 | 35761 ft | 347 kts | 265° |
| 2026-05-05 20:45 | 43.97342 | -82.80293 | 35767 ft | 348 kts | 265° |
| 2026-05-05 20:46 | 43.97212 | -82.86959 | 35760 ft | 346 kts | 266° |
| 2026-05-05 20:46 | 43.97082 | -82.93614 | 35764 ft | 346 kts | 265° |
| 2026-05-05 20:47 | 43.96950 | -83.00299 | 35764 ft | 346 kts | 266° |
| 2026-05-05 20:47 | 43.96810 | -83.06932 | 35760 ft | 346 kts | 266° |
| 2026-05-05 20:48 | 43.96660 | -83.13584 | 35760 ft | 346 kts | 265° |
| 2026-05-05 20:48 | 43.96511 | -83.20291 | 35778 ft | 348 kts | 265° |
| 2026-05-05 20:49 | 43.96361 | -83.26949 | 35776 ft | 348 kts | 266° |
| 2026-05-05 20:49 | 43.96207 | -83.33633 | 35775 ft | 347 kts | 265° |
| 2026-05-05 20:50 | 43.96076 | -83.39217 | 35783 ft | 347 kts | 265° |
| 2026-05-05 20:50 | 43.95885 | -83.46997 | 35781 ft | 346 kts | 266° |
| 2026-05-05 20:51 | 43.95713 | -83.53859 | 35782 ft | 348 kts | 266° |
| 2026-05-05 20:51 | 43.95524 | -83.61230 | 35789 ft | 348 kts | 266° |
| 2026-05-05 20:52 | 43.95332 | -83.68304 | 35778 ft | 349 kts | 265° |
| 2026-05-05 20:52 | 43.95155 | -83.74974 | 35772 ft | 350 kts | 266° |
| 2026-05-05 20:53 | 43.94970 | -83.81692 | 35783 ft | 348 kts | 265° |
| 2026-05-05 20:53 | 43.94780 | -83.88401 | 35784 ft | 350 kts | 265° |
| 2026-05-05 20:54 | 43.94587 | -83.95126 | 35778 ft | 350 kts | 266° |
| 2026-05-05 20:54 | 43.94393 | -84.01833 | 35778 ft | 349 kts | 265° |
| 2026-05-05 20:55 | 43.94193 | -84.08548 | 35787 ft | 350 kts | 266° |
| 2026-05-05 20:55 | 43.93991 | -84.15264 | 35788 ft | 350 kts | 266° |
| 2026-05-05 20:56 | 43.93783 | -84.21982 | 35777 ft | 349 kts | 266° |
| 2026-05-05 20:56 | 43.93570 | -84.28717 | 35783 ft | 352 kts | 265° |
| 2026-05-05 20:57 | 43.93381 | -84.35455 | 35776 ft | 350 kts | 268° |
| 2026-05-05 20:57 | 43.93815 | -84.42167 | 35788 ft | 354 kts | 276° |
| 2026-05-05 20:58 | 43.94834 | -84.48799 | 35788 ft | 355 kts | 278° |
| 2026-05-05 20:58 | 43.95969 | -84.55441 | 35781 ft | 354 kts | 278° |
| 2026-05-05 20:59 | 43.97084 | -84.62079 | 35794 ft | 355 kts | 279° |
| 2026-05-05 20:59 | 43.98181 | -84.68763 | 35772 ft | 355 kts | 277° |
| 2026-05-05 21:00 | 43.99262 | -84.75417 | 35796 ft | 355 kts | 278° |
| 2026-05-05 21:00 | 44.00332 | -84.82057 | 35808 ft | 353 kts | 278° |
| 2026-05-05 21:01 | 44.01401 | -84.88708 | 35827 ft | 356 kts | 278° |
| 2026-05-05 21:01 | 44.02467 | -84.95389 | 35812 ft | 355 kts | 278° |
| 2026-05-05 21:02 | 44.03522 | -85.02020 | 35834 ft | 354 kts | 278° |
| 2026-05-05 21:02 | 44.04578 | -85.08694 | 35807 ft | 355 kts | 278° |
| 2026-05-05 21:03 | 44.05629 | -85.15334 | 35793 ft | 354 kts | 278° |
| 2026-05-05 21:03 | 44.06678 | -85.22002 | 35807 ft | 355 kts | 278° |
| 2026-05-05 21:04 | 44.07726 | -85.28714 | 35816 ft | 354 kts | 278° |
| 2026-05-05 21:04 | 44.08762 | -85.35366 | 35814 ft | 355 kts | 278° |
| 2026-05-05 21:05 | 44.09800 | -85.42040 | 35826 ft | 355 kts | 278° |
| 2026-05-05 21:05 | 44.10829 | -85.48690 | 35805 ft | 354 kts | 278° |
| 2026-05-05 21:06 | 44.11855 | -85.55366 | 35818 ft | 355 kts | 278° |
| 2026-05-05 21:06 | 44.12884 | -85.62078 | 35819 ft | 354 kts | 278° |
| 2026-05-05 21:07 | 44.13904 | -85.68754 | 35805 ft | 355 kts | 277° |
| 2026-05-05 21:07 | 44.14924 | -85.75455 | 35825 ft | 355 kts | 277° |
| 2026-05-05 21:08 | 44.15936 | -85.82126 | 35806 ft | 354 kts | 278° |
| 2026-05-05 21:08 | 44.16954 | -85.88883 | 35823 ft | 357 kts | 277° |
| 2026-05-05 21:09 | 44.17959 | -85.95563 | 35824 ft | 354 kts | 278° |
| 2026-05-05 21:09 | 44.18962 | -86.02277 | 35833 ft | 356 kts | 277° |
| 2026-05-05 21:10 | 44.19967 | -86.09042 | 35829 ft | 356 kts | 278° |
| 2026-05-05 21:10 | 44.20966 | -86.15772 | 35843 ft | 355 kts | 278° |
| 2026-05-05 21:11 | 44.21966 | -86.22504 | 35835 ft | 356 kts | 278° |
| 2026-05-05 21:11 | 44.22954 | -86.29221 | 35840 ft | 356 kts | 278° |
| 2026-05-05 21:12 | 44.23939 | -86.35963 | 35841 ft | 356 kts | 278° |
| 2026-05-05 21:12 | 44.24921 | -86.42715 | 35835 ft | 356 kts | 278° |
| 2026-05-05 21:13 | 44.25901 | -86.49466 | 35816 ft | 355 kts | 278° |
| 2026-05-05 21:13 | 44.26873 | -86.56189 | 35838 ft | 356 kts | 278° |
| 2026-05-05 21:14 | 44.27840 | -86.62931 | 36089 ft | 355 kts | 278° |
| 2026-05-05 21:14 | 44.28324 | -86.66311 | 35792 ft | 355 kts | 277° |
| 2026-05-05 21:14 | 44.28805 | -86.69679 | 35813 ft | 357 kts | 278° |
| 2026-05-05 21:15 | 44.29290 | -86.73072 | 36078 ft | 358 kts | 278° |
| 2026-05-05 21:15 | 44.29776 | -86.76479 | 35615 ft | 358 kts | 278° |
| 2026-05-05 21:15 | 44.30255 | -86.79826 | 35753 ft | 349 kts | 277° |
| 2026-05-05 21:15 | 44.30729 | -86.83160 | 35824 ft | 352 kts | 277° |
| 2026-05-05 21:16 | 44.31206 | -86.86546 | 36011 ft | 359 kts | 277° |
| 2026-05-05 21:16 | 44.31684 | -86.89941 | 35829 ft | 357 kts | 277° |
| 2026-05-05 21:16 | 44.32626 | -86.96605 | 35821 ft | 351 kts | 277° |
| 2026-05-05 21:17 | 44.33566 | -87.03324 | 35821 ft | 355 kts | 278° |
| 2026-05-05 21:17 | 44.34508 | -87.10062 | 35820 ft | 353 kts | 278° |
| 2026-05-05 21:18 | 44.35439 | -87.16785 | 35812 ft | 355 kts | 277° |
| 2026-05-05 21:18 | 44.36369 | -87.23539 | 35820 ft | 354 kts | 278° |
| 2026-05-05 21:19 | 44.37288 | -87.30221 | 35801 ft | 354 kts | 277° |
| 2026-05-05 21:19 | 44.38213 | -87.36989 | 35822 ft | 357 kts | 277° |
| 2026-05-05 21:20 | 44.39135 | -87.43747 | 35815 ft | 355 kts | 277° |
| 2026-05-05 21:20 | 44.40056 | -87.50510 | 35817 ft | 354 kts | 277° |
| 2026-05-05 21:21 | 44.40963 | -87.57242 | 35804 ft | 354 kts | 277° |
| 2026-05-05 21:21 | 44.41871 | -87.64005 | 35809 ft | 354 kts | 277° |
| 2026-05-05 21:22 | 44.42772 | -87.70755 | 35819 ft | 356 kts | 277° |
| 2026-05-05 21:22 | 44.43672 | -87.77521 | 35817 ft | 354 kts | 277° |
| 2026-05-05 21:23 | 44.44568 | -87.84276 | 35827 ft | 355 kts | 277° |
| 2026-05-05 21:23 | 44.45461 | -87.91052 | 35822 ft | 354 kts | 277° |
| 2026-05-05 21:24 | 44.46348 | -87.97812 | 35828 ft | 356 kts | 277° |
| 2026-05-05 21:24 | 44.47232 | -88.04584 | 35832 ft | 355 kts | 277° |
| 2026-05-05 21:25 | 44.48113 | -88.11368 | 35831 ft | 355 kts | 276° |
| 2026-05-05 21:25 | 44.48996 | -88.18201 | 35841 ft | 358 kts | 276° |
| 2026-05-05 21:26 | 44.49868 | -88.24985 | 35846 ft | 356 kts | 276° |
| 2026-05-05 21:26 | 44.50869 | -88.31760 | 35842 ft | 358 kts | 281° |
| 2026-05-05 21:27 | 44.52331 | -88.38447 | 35845 ft | 361 kts | 283° |
| 2026-05-05 21:27 | 44.53886 | -88.45139 | 35829 ft | 361 kts | 283° |
| 2026-05-05 21:28 | 44.55410 | -88.51835 | 35850 ft | 363 kts | 283° |
| 2026-05-05 21:28 | 44.56914 | -88.58516 | 35845 ft | 361 kts | 282° |
| 2026-05-05 21:29 | 44.58421 | -88.65278 | 35861 ft | 363 kts | 282° |
| 2026-05-05 21:29 | 44.59904 | -88.71981 | 35847 ft | 362 kts | 282° |
| 2026-05-05 21:30 | 44.61398 | -88.78760 | 35856 ft | 363 kts | 282° |
| 2026-05-05 21:30 | 44.62881 | -88.85489 | 35844 ft | 363 kts | 282° |
| 2026-05-05 21:31 | 44.64372 | -88.92289 | 35843 ft | 366 kts | 282° |
| 2026-05-05 21:31 | 44.65846 | -88.99022 | 35828 ft | 363 kts | 282° |
| 2026-05-05 21:32 | 44.67322 | -89.05797 | 35821 ft | 365 kts | 282° |
| 2026-05-05 21:32 | 44.68800 | -89.12607 | 35818 ft | 365 kts | 282° |
| 2026-05-05 21:33 | 44.70274 | -89.19418 | 35819 ft | 366 kts | 282° |
| 2026-05-05 21:33 | 44.71749 | -89.26242 | 35819 ft | 367 kts | 282° |
| 2026-05-05 21:34 | 44.73230 | -89.33124 | 35834 ft | 367 kts | 282° |
| 2026-05-05 21:34 | 44.74709 | -89.40013 | 35827 ft | 369 kts | 282° |
| 2026-05-05 21:35 | 44.76187 | -89.46920 | 35844 ft | 366 kts | 282° |
| 2026-05-05 21:35 | 44.77648 | -89.53780 | 35840 ft | 367 kts | 282° |
| 2026-05-05 21:36 | 44.79106 | -89.60652 | 35844 ft | 371 kts | 282° |
| 2026-05-05 21:36 | 44.80574 | -89.67606 | 35841 ft | 368 kts | 282° |
| 2026-05-05 21:37 | 44.82030 | -89.74513 | 35857 ft | 372 kts | 281° |
| 2026-05-05 21:37 | 44.83499 | -89.81494 | 35856 ft | 372 kts | 282° |
| 2026-05-05 21:38 | 44.84957 | -89.88437 | 35848 ft | 371 kts | 282° |
| 2026-05-05 21:38 | 44.86416 | -89.95420 | 35847 ft | 373 kts | 282° |
| 2026-05-05 21:39 | 44.87876 | -90.02431 | 35846 ft | 374 kts | 282° |
| 2026-05-05 21:39 | 44.89160 | -90.09465 | 35852 ft | 370 kts | 277° |
| 2026-05-05 21:40 | 44.89867 | -90.16614 | 35837 ft | 369 kts | 274° |
| 2026-05-05 21:40 | 44.90440 | -90.23827 | 35849 ft | 370 kts | 274° |
| 2026-05-05 21:41 | 44.91040 | -90.31013 | 35850 ft | 371 kts | 274° |
| 2026-05-05 21:41 | 44.91658 | -90.38241 | 35842 ft | 371 kts | 274° |
| 2026-05-05 21:42 | 44.92271 | -90.45419 | 35846 ft | 371 kts | 274° |
| 2026-05-05 21:42 | 44.92884 | -90.52572 | 35845 ft | 371 kts | 275° |
| 2026-05-05 21:43 | 44.93497 | -90.59787 | 35844 ft | 372 kts | 275° |
| 2026-05-05 21:43 | 44.94105 | -90.67010 | 35861 ft | 372 kts | 274° |
| 2026-05-05 21:44 | 44.94709 | -90.74203 | 35854 ft | 369 kts | 274° |
| 2026-05-05 21:44 | 44.95313 | -90.81409 | 35855 ft | 371 kts | 274° |
| 2026-05-05 21:45 | 44.95908 | -90.88638 | 35871 ft | 372 kts | 274° |
| 2026-05-05 21:45 | 44.96497 | -90.95795 | 35624 ft | 365 kts | 274° |
| 2026-05-05 21:46 | 44.96785 | -90.99294 | 35205 ft | 362 kts | 274° |
| 2026-05-05 21:46 | 44.97071 | -91.02816 | 34620 ft | 362 kts | 274° |
| 2026-05-05 21:46 | 44.97357 | -91.06355 | 33972 ft | 364 kts | 274° |
| 2026-05-05 21:46 | 44.97643 | -91.09903 | 33301 ft | 367 kts | 274° |
| 2026-05-05 21:47 | 44.97931 | -91.13489 | 32631 ft | 370 kts | 274° |
| 2026-05-05 21:47 | 44.98216 | -91.17059 | 31952 ft | 371 kts | 273° |
| 2026-05-05 21:47 | 44.98505 | -91.20667 | 31683 ft | 359 kts | 273° |
| 2026-05-05 21:47 | 44.98779 | -91.24095 | 31415 ft | 349 kts | 273° |
| 2026-05-05 21:48 | 44.99043 | -91.27431 | 30973 ft | 343 kts | 274° |
| 2026-05-05 21:48 | 44.99304 | -91.30739 | 30313 ft | 342 kts | 272° |
| 2026-05-05 21:48 | 44.99567 | -91.34105 | 29009 ft | 353 kts | 272° |
| 2026-05-05 21:48 | 44.99833 | -91.37571 | 27533 ft | 367 kts | 273° |
| 2026-05-05 21:49 | 45.00105 | -91.41116 | 26352 ft | 366 kts | 274° |
| 2026-05-05 21:49 | 45.00378 | -91.44621 | 25323 ft | 362 kts | 274° |
| 2026-05-05 21:49 | 45.00648 | -91.48090 | 24716 ft | 348 kts | 274° |
| 2026-05-05 21:49 | 45.00906 | -91.51394 | 24376 ft | 330 kts | 274° |
| 2026-05-05 21:50 | 45.01150 | -91.54546 | 23964 ft | 316 kts | 274° |
| 2026-05-05 21:50 | 45.01381 | -91.57545 | 23546 ft | 304 kts | 273° |
| 2026-05-05 21:50 | 45.01603 | -91.60473 | 23154 ft | 298 kts | 274° |
| 2026-05-05 21:50 | 45.01823 | -91.63450 | 22728 ft | 314 kts | 274° |
| 2026-05-05 21:51 | 45.02051 | -91.66532 | 22265 ft | 319 kts | 274° |
| 2026-05-05 21:51 | 45.02286 | -91.69666 | 21816 ft | 319 kts | 274° |
| 2026-05-05 21:51 | 45.02519 | -91.72768 | 21356 ft | 319 kts | 275° |
| 2026-05-05 21:51 | 45.02750 | -91.75871 | 20894 ft | 319 kts | 274° |
| 2026-05-05 21:52 | 45.03207 | -91.82085 | 19980 ft | 322 kts | 276° |
| 2026-05-05 21:52 | 45.03438 | -91.85238 | 19517 ft | 324 kts | 276° |
| 2026-05-05 21:52 | 45.03672 | -91.88412 | 19059 ft | 326 kts | 276° |
| 2026-05-05 21:53 | 45.03905 | -91.91576 | 18586 ft | 329 kts | 276° |
| 2026-05-05 21:53 | 45.04142 | -91.94810 | 18066 ft | 332 kts | 276° |
| 2026-05-05 21:53 | 45.04376 | -91.98031 | 17569 ft | 333 kts | 276° |
| 2026-05-05 21:53 | 45.04612 | -92.01307 | 17086 ft | 335 kts | 276° |
| 2026-05-05 21:54 | 45.04845 | -92.04548 | 16598 ft | 337 kts | 276° |
| 2026-05-05 21:54 | 45.05082 | -92.07871 | 16090 ft | 338 kts | 276° |
| 2026-05-05 21:54 | 45.05312 | -92.11105 | 15664 ft | 327 kts | 277° |
| 2026-05-05 21:54 | 45.05534 | -92.14243 | 15271 ft | 315 kts | 276° |
| 2026-05-05 21:55 | 45.05744 | -92.17245 | 14844 ft | 308 kts | 276° |
| 2026-05-05 21:55 | 45.05877 | -92.20261 | 14370 ft | 307 kts | 272° |
| 2026-05-05 21:55 | 45.05761 | -92.23266 | 13924 ft | 306 kts | 265° |
| 2026-05-05 21:55 | 45.05398 | -92.26217 | 13475 ft | 305 kts | 260° |
| 2026-05-05 21:56 | 45.04932 | -92.29098 | 13028 ft | 304 kts | 259° |
| 2026-05-05 21:56 | 45.04438 | -92.32001 | 12567 ft | 302 kts | 259° |
| 2026-05-05 21:56 | 45.03966 | -92.34847 | 12133 ft | 300 kts | 259° |
| 2026-05-05 21:56 | 45.03505 | -92.37712 | 11692 ft | 298 kts | 260° |
| 2026-05-05 21:57 | 45.03056 | -92.40569 | 11242 ft | 297 kts | 260° |
| 2026-05-05 21:57 | 45.02618 | -92.43371 | 10812 ft | 295 kts | 260° |
| 2026-05-05 21:57 | 45.02179 | -92.46172 | 10518 ft | 288 kts | 260° |
| 2026-05-05 21:57 | 45.01748 | -92.48898 | 10373 ft | 277 kts | 260° |
| 2026-05-05 21:58 | 45.01338 | -92.51468 | 10277 ft | 265 kts | 260° |
| 2026-05-05 21:58 | 45.00940 | -92.53962 | 10175 ft | 254 kts | 260° |
| 2026-05-05 21:58 | 45.00512 | -92.56368 | 9958 ft | 249 kts | 255° |
| 2026-05-05 21:58 | 44.99693 | -92.58532 | 9591 ft | 255 kts | 234° |
| 2026-05-05 21:59 | 44.98439 | -92.60288 | 9259 ft | 257 kts | 227° |
| 2026-05-05 21:59 | 44.97109 | -92.61958 | 8926 ft | 256 kts | 227° |
| 2026-05-05 21:59 | 44.95797 | -92.63657 | 8589 ft | 254 kts | 228° |
| 2026-05-05 21:59 | 44.94537 | -92.65363 | 8260 ft | 253 kts | 229° |
| 2026-05-05 22:00 | 44.93278 | -92.67100 | 7933 ft | 253 kts | 229° |
| 2026-05-05 22:00 | 44.92031 | -92.68825 | 7608 ft | 252 kts | 229° |
| 2026-05-05 22:00 | 44.90781 | -92.70548 | 7281 ft | 252 kts | 229° |
| 2026-05-05 22:00 | 44.89526 | -92.72271 | 7049 ft | 248 kts | 229° |
| 2026-05-05 22:01 | 44.88297 | -92.73945 | 7045 ft | 240 kts | 228° |
| 2026-05-05 22:01 | 44.87117 | -92.75542 | 7047 ft | 231 kts | 228° |
| 2026-05-05 22:01 | 44.85989 | -92.77063 | 6980 ft | 224 kts | 228° |
| 2026-05-05 22:01 | 44.84857 | -92.78574 | 6896 ft | 222 kts | 228° |
| 2026-05-05 22:02 | 44.83657 | -92.79965 | 6636 ft | 224 kts | 219° |
| 2026-05-05 22:02 | 44.82355 | -92.81175 | 6356 ft | 225 kts | 218° |
| 2026-05-05 22:02 | 44.81043 | -92.82384 | 6090 ft | 224 kts | 219° |
| 2026-05-05 22:02 | 44.79853 | -92.83750 | 5824 ft | 221 kts | 228° |
| 2026-05-05 22:03 | 44.78744 | -92.85262 | 5567 ft | 220 kts | 229° |
| 2026-05-05 22:03 | 44.77765 | -92.86877 | 5269 ft | 215 kts | 247° |
| 2026-05-05 22:03 | 44.77392 | -92.88852 | 4997 ft | 208 kts | 268° |
| 2026-05-05 22:03 | 44.77287 | -92.90894 | 4719 ft | 208 kts | 269° |
| 2026-05-05 22:04 | 44.77199 | -92.92910 | 4469 ft | 208 kts | 269° |
| 2026-05-05 22:04 | 44.77121 | -92.94956 | 4210 ft | 206 kts | 273° |
| 2026-05-05 22:04 | 44.77344 | -92.96891 | 4062 ft | 200 kts | 292° |
| 2026-05-05 22:04 | 44.77978 | -92.98646 | 4066 ft | 201 kts | 301° |
| 2026-05-05 22:05 | 44.78680 | -93.00285 | 4062 ft | 190 kts | 302° |
| 2026-05-05 22:05 | 44.79350 | -93.01829 | 3923 ft | 178 kts | 302° |
| 2026-05-05 22:05 | 44.79981 | -93.03275 | 3624 ft | 170 kts | 303° |
| 2026-05-05 22:05 | 44.80600 | -93.04680 | 3401 ft | 168 kts | 303° |
| 2026-05-05 22:06 | 44.81213 | -93.06080 | 3164 ft | 168 kts | 302° |
| 2026-05-05 22:06 | 44.81817 | -93.07460 | 2922 ft | 163 kts | 302° |
| 2026-05-05 22:06 | 44.82381 | -93.08755 | 2749 ft | 147 kts | 302° |
| 2026-05-05 22:06 | 44.82909 | -93.09948 | 2502 ft | 140 kts | 302° |
| 2026-05-05 22:07 | 44.83414 | -93.11107 | 2327 ft | 138 kts | 301° |
| 2026-05-05 22:07 | 44.83910 | -93.12244 | 2137 ft | 139 kts | 301° |
| 2026-05-05 22:07 | 44.84418 | -93.13406 | 1939 ft | 137 kts | 302° |
| 2026-05-05 22:07 | 44.84916 | -93.14544 | 1760 ft | 137 kts | 302° |
| 2026-05-05 22:08 | 44.85426 | -93.15722 | 1570 ft | 142 kts | 301° |
| 2026-05-05 22:08 | 44.85926 | -93.16871 | 1367 ft | 135 kts | 303° |
| 2026-05-05 22:08 | 44.86428 | -93.18001 | 1225 ft | 137 kts | 301° |
| 2026-05-05 22:08 | 44.86933 | -93.19170 | 1032 ft | 144 kts | 302° |
| 2026-05-05 22:09 | 44.87460 | -93.20371 | 836 ft | 138 kts | 301° |
| 2026-05-05 22:09 | 44.87912 | -93.21420 | 823 ft | 99 kts | 302° |
| 2026-05-05 22:09 | 44.88157 | -93.21978 | 827 ft | 40 kts | 301° |
| 2026-05-05 22:09 | 44.88278 | -93.22265 | 830 ft | 30 kts | 302° |
| 2026-05-05 22:10 | 44.88382 | -93.22438 | 831 ft | 18 kts | 351° |
| 2026-05-05 22:10 | 44.88448 | -93.22374 | 831 ft | 8 kts | 111° |
| 2026-05-05 22:10 | 44.88440 | -93.22344 | 831 ft | 0 kts | 111° |
| 2026-05-05 22:11 | 44.88434 | -93.22324 | 831 ft | 8 kts | 114° |
| 2026-05-05 22:11 | 44.88393 | -93.22227 | 831 ft | 11 kts | 122° |
| 2026-05-05 22:11 | 44.88350 | -93.22130 | 830 ft | 12 kts | 121° |
| 2026-05-05 22:11 | 44.88304 | -93.22022 | 828 ft | 12 kts | 121° |
| 2026-05-05 22:12 | 44.88315 | -93.21925 | 827 ft | 10 kts | 59° |
| 2026-05-05 22:12 | 44.88302 | -93.21833 | 827 ft | 10 kts | 118° |
| 2026-05-05 22:12 | 44.88262 | -93.21738 | 826 ft | 12 kts | 122° |
| 2026-05-05 22:12 | 44.88211 | -93.21626 | 824 ft | 13 kts | 122° |
| 2026-05-05 22:13 | 44.88161 | -93.21516 | 824 ft | 13 kts | 129° |
| 2026-05-05 22:13 | 44.88084 | -93.21445 | 823 ft | 13 kts | 142° |
| 2026-05-05 22:13 | 44.88027 | -93.21333 | 822 ft | 14 kts | 112° |
| 2026-05-05 22:13 | 44.88032 | -93.21240 | 822 ft | 2 kts | 47° |
| 2026-05-05 22:14 | 44.88041 | -93.21223 | 822 ft | 2 kts | 54° |
| 2026-05-05 22:14 | 44.88055 | -93.21195 | 822 ft | 5 kts | 53° |
| 2026-05-05 22:14 | 44.88082 | -93.21149 | 821 ft | 6 kts | 51° |
| 2026-05-05 22:14 | 44.88090 | -93.21135 | 820 ft | 1 kts | 50° |
| 2026-05-05 22:15 | 44.88091 | -93.21133 | 820 ft | 0 kts | 50° |